createdAt,value
2022-12-18T00:00:31.850Z,21.43
2022-12-18T00:03:01.488Z,19.23
2022-12-18T00:05:33.709Z,20.60
2022-12-18T00:08:03.337Z,19.70
2022-12-18T00:10:39.002Z,19.50
2022-12-18T00:13:10.169Z,21.60
2022-12-18T00:15:40.591Z,20.03
2022-12-18T00:18:10.134Z,21.10
2022-12-18T00:20:42.993Z,19.53
2022-12-18T00:23:12.537Z,19.67
2022-12-18T00:25:42.012Z,19.73
2022-12-18T00:28:11.525Z,19.27
2022-12-18T00:30:40.964Z,20.63
2022-12-18T00:33:11.096Z,19.63
2022-12-18T00:35:43.291Z,19.33
2022-12-18T00:38:13.258Z,21.97
2022-12-18T00:40:42.750Z,18.63
2022-12-18T00:43:13.464Z,22.30
2022-12-18T00:45:43.077Z,20.07
2022-12-18T00:48:13.763Z,18.73
2022-12-18T00:50:45.919Z,19.00
2022-12-18T00:53:15.630Z,15.83
2022-12-18T00:55:45.301Z,17.23
2022-12-18T00:58:15.267Z,17.43
2022-12-18T01:00:44.738Z,20.20
2022-12-18T01:03:16.556Z,18.50
2022-12-18T01:05:49.692Z,15.77
2022-12-18T01:08:21.630Z,17.20
2022-12-18T01:10:51.145Z,18.20
2022-12-18T01:13:20.687Z,18.67
2022-12-18T01:15:53.363Z,19.43
2022-12-18T01:18:22.987Z,19.83
2022-12-18T01:20:56.717Z,20.47
2022-12-18T01:23:26.363Z,20.73
2022-12-18T01:25:55.855Z,20.67
2022-12-18T01:28:25.413Z,19.83
2022-12-18T01:30:54.919Z,18.87
2022-12-18T01:33:24.821Z,22.43
2022-12-18T01:35:57.558Z,21.73
2022-12-18T01:38:27.099Z,21.13
2022-12-18T01:41:00.737Z,20.60
2022-12-18T01:43:44.781Z,21.63
2022-12-18T01:46:14.634Z,20.53
2022-12-18T01:48:44.595Z,19.80
2022-12-18T01:51:16.813Z,19.60
2022-12-18T01:53:47.500Z,19.07
2022-12-18T01:56:18.492Z,18.70
2022-12-18T01:58:52.132Z,22.13
2022-12-18T02:01:21.894Z,19.50
2022-12-18T02:03:51.549Z,17.63
2022-12-18T02:06:29.525Z,17.37
2022-12-18T02:09:04.578Z,16.33
2022-12-18T02:11:43.494Z,17.33
2022-12-18T02:14:20.597Z,13.90
2022-12-18T02:16:55.266Z,14.23
2022-12-18T02:19:37.634Z,13.47
2022-12-18T02:22:15.683Z,11.97
2022-12-18T02:24:49.212Z,12.30
2022-12-18T02:27:22.499Z,11.97
2022-12-18T02:29:58.335Z,10.53
2022-12-18T02:32:32.333Z,11.13
2022-12-18T02:35:02.831Z,10.87
2022-12-18T02:37:34.220Z,10.43
2022-12-18T02:40:07.181Z,10.50
2022-12-18T02:42:41.818Z,11.63
2022-12-18T02:45:13.862Z,11.80
2022-12-18T02:47:44.461Z,12.67
2022-12-18T02:50:20.743Z,11.70
2022-12-18T02:52:59.637Z,13.90
2022-12-18T02:55:34.726Z,12.20
2022-12-18T02:58:14.720Z,13.63
2022-12-18T03:00:46.963Z,12.97
2022-12-18T03:03:20.288Z,14.07
2022-12-18T03:05:52.745Z,12.60
2022-12-18T03:08:24.277Z,13.63
2022-12-18T03:10:55.675Z,15.03
2022-12-18T03:13:32.130Z,14.27
2022-12-18T03:16:02.914Z,16.60
2022-12-18T03:18:35.460Z,16.57
2022-12-18T03:21:07.541Z,16.53
2022-12-18T03:23:41.881Z,17.47
2022-12-18T03:26:14.088Z,16.63
2022-12-18T03:28:49.696Z,16.30
2022-12-18T03:31:21.812Z,17.43
2022-12-18T03:33:55.873Z,16.57
2022-12-18T03:36:34.543Z,14.27
2022-12-18T03:39:04.795Z,13.23
2022-12-18T03:41:42.168Z,15.53
2022-12-18T03:44:34.160Z,15.10
2022-12-18T03:47:08.381Z,14.90
2022-12-18T03:49:39.414Z,14.70
2022-12-18T03:52:12.877Z,15.03
2022-12-18T03:54:45.100Z,15.27
2022-12-18T03:57:20.142Z,15.07
2022-12-18T03:59:56.532Z,15.70
2022-12-18T04:02:29.974Z,18.30
2022-12-18T04:05:03.245Z,18.83
2022-12-18T04:07:32.878Z,18.47
2022-12-18T04:10:03.606Z,18.97
2022-12-18T04:12:34.458Z,18.37
2022-12-18T04:15:06.943Z,19.80
2022-12-18T04:17:36.700Z,21.23
2022-12-18T04:20:07.593Z,18.33
2022-12-18T04:22:38.553Z,19.87
2022-12-18T04:25:08.826Z,19.90
2022-12-18T04:27:41.820Z,20.23
2022-12-18T04:30:14.905Z,19.40
2022-12-18T04:32:49.026Z,18.27
2022-12-18T04:35:22.181Z,19.40
2022-12-18T04:37:52.451Z,21.57
2022-12-18T04:40:22.360Z,17.57
2022-12-18T04:42:52.015Z,17.97
2022-12-18T04:45:24.120Z,17.23
2022-12-18T04:47:53.591Z,19.37
2022-12-18T04:50:23.044Z,18.17
2022-12-18T04:52:52.907Z,19.97
2022-12-18T04:55:22.637Z,19.40
2022-12-18T04:57:52.151Z,18.83
2022-12-18T05:00:24.687Z,18.07
2022-12-18T05:02:55.324Z,15.17
2022-12-18T05:05:24.947Z,17.37
2022-12-18T05:07:54.434Z,13.87
2022-12-18T05:10:24.063Z,13.50
2022-12-18T05:13:08.779Z,13.30
2022-12-18T05:15:40.951Z,11.77
2022-12-18T05:18:11.567Z,12.27
2022-12-18T05:20:41.032Z,10.87
2022-12-18T05:23:10.528Z,12.17
2022-12-18T05:25:40.094Z,12.27
2022-12-18T05:28:09.552Z,14.27
2022-12-18T05:30:41.735Z,12.33
2022-12-18T05:33:11.343Z,11.07
2022-12-18T05:35:40.888Z,12.93
2022-12-18T05:38:10.517Z,11.73
2022-12-18T05:40:40.151Z,11.60
2022-12-18T05:43:09.693Z,11.50
2022-12-18T05:45:43.740Z,10.97
2022-12-18T05:48:13.525Z,12.03
2022-12-18T05:50:45.035Z,10.57
2022-12-18T05:53:15.413Z,11.63
2022-12-18T05:55:45.898Z,10.50
2022-12-18T05:58:16.089Z,9.57
2022-12-18T06:00:49.356Z,10.87
2022-12-18T06:03:18.880Z,10.80
2022-12-18T06:05:48.840Z,10.17
2022-12-18T06:08:18.604Z,10.70
2022-12-18T06:10:53.350Z,12.30
2022-12-18T06:13:22.857Z,11.07
2022-12-18T06:15:54.967Z,12.00
2022-12-18T06:18:24.530Z,10.57
2022-12-18T06:20:58.432Z,11.43
2022-12-18T06:23:28.352Z,11.40
2022-12-18T06:25:57.870Z,11.03
2022-12-18T06:28:27.435Z,11.13
2022-12-18T06:30:59.760Z,11.87
2022-12-18T06:33:30.206Z,12.30
2022-12-18T06:36:04.079Z,10.57
2022-12-18T06:38:33.517Z,9.20
2022-12-18T06:41:03.144Z,10.13
2022-12-18T06:43:32.851Z,9.33
2022-12-18T06:46:06.467Z,9.93
2022-12-18T06:48:36.284Z,9.77
2022-12-18T06:51:06.390Z,9.50
2022-12-18T06:53:36.085Z,12.57
2022-12-18T06:56:09.934Z,11.83
2022-12-18T06:58:40.023Z,11.63
2022-12-18T07:01:13.747Z,12.80
2022-12-18T07:03:44.968Z,13.37
2022-12-18T07:06:18.832Z,15.10
2022-12-18T07:08:48.779Z,15.83
2022-12-18T07:11:18.692Z,15.43
2022-12-18T07:13:48.985Z,16.60
2022-12-18T07:16:25.197Z,16.47
2022-12-18T07:18:55.046Z,17.33
2022-12-18T07:21:25.258Z,14.23
2022-12-18T07:23:54.980Z,12.40
2022-12-18T07:26:24.980Z,12.07
2022-12-18T07:28:58.598Z,13.00
2022-12-18T07:31:31.041Z,12.50
2022-12-18T07:34:00.917Z,13.03
2022-12-18T07:36:30.374Z,11.30
2022-12-18T07:38:59.935Z,12.97
2022-12-18T07:41:29.403Z,15.30
2022-12-18T07:43:58.958Z,13.20
2022-12-18T07:46:31.051Z,12.67
2022-12-18T07:49:00.628Z,19.00
2022-12-18T07:51:30.072Z,17.10
2022-12-18T07:54:00.544Z,17.80
2022-12-18T07:56:31.397Z,20.40
2022-12-18T07:59:01.866Z,19.43
2022-12-18T08:01:34.001Z,18.53
2022-12-18T08:04:03.669Z,20.13
2022-12-18T08:06:33.104Z,23.73
2022-12-18T08:09:02.619Z,22.07
2022-12-18T08:11:32.469Z,15.10
2022-12-18T08:14:01.930Z,20.37
2022-12-18T08:16:34.090Z,19.43
2022-12-18T08:19:03.839Z,18.97
2022-12-18T08:21:34.805Z,18.93
2022-12-18T08:24:04.757Z,17.87
2022-12-18T08:26:34.700Z,18.33
2022-12-18T08:29:04.314Z,17.50
2022-12-18T08:31:36.764Z,17.53
2022-12-18T08:34:06.340Z,19.97
2022-12-18T08:36:36.143Z,19.20
2022-12-18T08:39:05.864Z,18.97
2022-12-18T08:41:35.386Z,19.67
2022-12-18T08:44:19.841Z,20.37
2022-12-18T08:46:52.037Z,20.07
2022-12-18T08:49:21.573Z,23.43
2022-12-18T08:51:50.988Z,21.60
2022-12-18T08:54:20.552Z,21.03
2022-12-18T08:56:50.675Z,20.07
2022-12-18T08:59:20.791Z,19.40
2022-12-18T09:01:53.171Z,17.73
2022-12-18T09:04:22.763Z,18.37
2022-12-18T09:06:52.264Z,18.77
2022-12-18T09:09:22.259Z,18.23
2022-12-18T09:11:51.795Z,19.30
2022-12-18T09:14:21.276Z,18.27
2022-12-18T09:16:53.736Z,18.20
2022-12-18T09:19:23.263Z,22.33
2022-12-18T09:21:52.781Z,18.40
2022-12-18T09:24:22.521Z,18.17
2022-12-18T09:26:57.432Z,18.93
2022-12-18T09:29:30.576Z,18.60
2022-12-18T09:32:02.658Z,18.50
2022-12-18T09:34:32.279Z,19.10
2022-12-18T09:37:01.724Z,17.93
2022-12-18T09:39:31.166Z,16.00
2022-12-18T09:42:02.246Z,15.00
2022-12-18T09:44:33.431Z,16.37
2022-12-18T09:47:14.829Z,15.83
2022-12-18T09:49:46.036Z,15.30
2022-12-18T09:52:18.296Z,16.60
2022-12-18T09:54:50.480Z,16.30
2022-12-18T09:57:22.305Z,15.03
2022-12-18T09:59:53.968Z,16.40
2022-12-18T10:02:27.676Z,15.57
2022-12-18T10:05:07.951Z,15.13
2022-12-18T10:07:44.636Z,15.37
2022-12-18T10:10:19.416Z,16.60
2022-12-18T10:12:55.592Z,16.27
2022-12-18T10:15:28.722Z,14.33
2022-12-18T10:18:06.516Z,13.77
2022-12-18T10:20:39.185Z,12.63
2022-12-18T10:23:18.437Z,12.57
2022-12-18T10:25:52.922Z,12.00
2022-12-18T10:28:22.797Z,12.03
2022-12-18T10:30:52.405Z,12.60
2022-12-18T10:33:25.540Z,11.47
2022-12-18T10:35:55.131Z,11.70
2022-12-18T10:38:26.052Z,11.30
2022-12-18T10:40:56.638Z,11.83
2022-12-18T10:43:27.704Z,11.43
2022-12-18T10:46:09.472Z,12.83
2022-12-18T10:48:44.392Z,9.40
2022-12-18T10:51:22.968Z,11.50
2022-12-18T10:53:56.444Z,11.50
2022-12-18T10:56:27.585Z,11.37
2022-12-18T10:59:01.382Z,10.93
2022-12-18T11:01:32.188Z,12.80
2022-12-18T11:04:12.396Z,9.40
2022-12-18T11:06:56.760Z,10.40
2022-12-18T11:09:27.501Z,12.80
2022-12-18T11:11:58.191Z,15.23
2022-12-18T11:14:28.916Z,11.80
2022-12-18T11:19:55.839Z,10.50
2022-12-18T11:22:27.574Z,10.43
2022-12-18T11:25:30.677Z,10.90
2022-12-18T11:27:52.136Z,10.17
2022-12-18T11:30:25.975Z,10.63
2022-12-18T11:32:57.022Z,10.33
2022-12-18T11:35:32.374Z,9.07
2022-12-18T11:38:06.269Z,10.93
2022-12-18T11:40:41.338Z,9.53
2022-12-18T11:43:13.627Z,8.27
2022-12-18T11:45:45.127Z,9.10
2022-12-18T11:48:18.815Z,8.07
2022-12-18T11:50:53.679Z,8.17
2022-12-18T11:53:23.674Z,9.40
2022-12-18T11:56:04.405Z,8.47
2022-12-18T11:58:40.463Z,8.77
2022-12-18T12:01:18.319Z,8.97
2022-12-18T12:04:00.836Z,9.33
2022-12-18T12:06:38.875Z,8.47
2022-12-18T12:09:13.169Z,8.20
2022-12-18T12:11:49.757Z,8.83
2022-12-18T12:14:34.247Z,8.33
2022-12-18T12:17:07.156Z,8.77
2022-12-18T12:19:41.113Z,9.43
2022-12-18T12:22:16.518Z,8.33
2022-12-18T12:24:52.240Z,8.23
2022-12-18T12:27:25.660Z,8.30
2022-12-18T12:30:02.881Z,8.10
2022-12-18T12:32:40.780Z,8.27
2022-12-18T12:35:17.800Z,7.90
2022-12-18T12:37:54.305Z,7.40
2022-12-18T12:40:51.321Z,7.50
2022-12-18T12:43:22.806Z,7.17
2022-12-18T12:45:55.674Z,7.40
2022-12-18T12:48:38.026Z,8.40
2022-12-18T12:51:12.311Z,7.70
2022-12-18T12:53:45.734Z,7.90
2022-12-18T12:56:17.084Z,8.53
2022-12-18T12:58:54.043Z,7.63
2022-12-18T13:01:29.475Z,7.97
2022-12-18T13:04:07.128Z,7.50
2022-12-18T13:09:38.263Z,7.67
2022-12-18T13:12:21.301Z,7.63
2022-12-18T13:14:51.345Z,8.47
2022-12-18T13:17:33.158Z,7.80
2022-12-18T13:20:10.921Z,7.57
2022-12-18T13:22:42.009Z,8.13
2022-12-18T13:25:26.844Z,7.47
2022-12-18T13:28:03.612Z,7.47
2022-12-18T13:30:49.876Z,7.30
2022-12-18T13:33:36.791Z,7.63
2022-12-18T13:36:20.633Z,8.60
2022-12-18T13:38:51.150Z,7.67
2022-12-18T13:41:27.425Z,8.97
2022-12-18T13:44:00.354Z,8.80
2022-12-18T13:46:31.864Z,9.40
2022-12-18T13:49:06.882Z,8.57
2022-12-18T13:51:37.818Z,8.60
2022-12-18T13:54:14.996Z,8.23
2022-12-18T13:56:47.695Z,7.53
2022-12-18T13:59:24.602Z,7.07
2022-12-18T14:01:56.287Z,7.43
2022-12-18T14:04:27.806Z,7.53
2022-12-18T14:06:59.105Z,8.23
2022-12-18T14:09:31.972Z,7.23
2022-12-18T14:12:15.949Z,8.17
2022-12-18T14:14:49.174Z,7.37
2022-12-18T14:17:21.611Z,7.80
2022-12-18T14:19:52.483Z,7.53
2022-12-18T14:22:23.171Z,8.37
2022-12-18T14:25:08.474Z,8.60
2022-12-18T14:27:41.296Z,8.63
2022-12-18T14:30:25.716Z,8.50
2022-12-18T14:33:06.021Z,7.43
2022-12-18T14:35:36.185Z,7.33
2022-12-18T14:38:22.256Z,7.80
2022-12-18T14:40:51.809Z,7.27
2022-12-18T14:43:21.311Z,8.53
2022-12-18T14:45:51.084Z,8.03
2022-12-18T14:48:24.267Z,7.83
2022-12-18T14:51:04.478Z,8.57
2022-12-18T14:53:39.499Z,8.20
2022-12-18T14:56:17.644Z,8.00
2022-12-18T14:58:51.178Z,7.60
2022-12-18T15:01:25.501Z,7.33
2022-12-18T15:03:58.701Z,8.83
2022-12-18T15:06:36.056Z,8.73
2022-12-18T15:09:07.033Z,8.57
2022-12-18T15:11:38.654Z,8.93
2022-12-18T15:14:23.161Z,8.60
2022-12-18T15:16:54.772Z,8.03
2022-12-18T15:19:31.778Z,8.37
2022-12-18T15:22:06.119Z,9.50
2022-12-18T15:24:36.262Z,7.97
2022-12-18T15:27:06.163Z,8.67
2022-12-18T15:29:35.655Z,8.10
2022-12-18T15:32:05.827Z,8.03
2022-12-18T15:34:37.943Z,9.00
2022-12-18T15:37:07.459Z,7.97
2022-12-18T15:39:36.913Z,7.87
2022-12-18T15:42:18.960Z,8.60
2022-12-18T15:44:49.525Z,9.57
2022-12-18T15:47:19.019Z,9.40
2022-12-18T15:49:51.089Z,8.77
2022-12-18T15:52:27.167Z,8.33
2022-12-18T15:55:12.162Z,9.73
2022-12-18T15:57:41.744Z,9.03
2022-12-18T16:00:15.657Z,8.00
2022-12-18T16:02:45.456Z,8.17
2022-12-18T16:05:19.302Z,8.53
2022-12-18T16:07:48.921Z,8.13
2022-12-18T16:10:18.582Z,8.13
2022-12-18T16:12:48.220Z,7.70
2022-12-18T16:15:22.620Z,8.90
2022-12-18T16:17:54.287Z,7.83
2022-12-18T16:20:26.436Z,6.67
2022-12-18T16:22:55.988Z,8.43
2022-12-18T16:25:26.596Z,7.87
2022-12-18T16:27:56.753Z,8.33
2022-12-18T16:30:28.256Z,8.10
2022-12-18T16:32:58.966Z,8.97
2022-12-18T16:35:31.058Z,7.83
2022-12-18T16:38:00.842Z,7.83
2022-12-18T16:40:30.270Z,7.33
2022-12-18T16:42:59.757Z,8.60
2022-12-18T16:45:34.147Z,8.60
2022-12-18T16:48:04.102Z,7.70
2022-12-18T16:50:36.258Z,7.87
2022-12-18T16:53:05.766Z,8.63
2022-12-18T16:55:35.260Z,8.40
2022-12-18T16:58:04.916Z,8.83
2022-12-18T17:00:34.450Z,7.70
2022-12-18T17:03:04.432Z,7.87
2022-12-18T17:05:36.697Z,7.97
2022-12-18T17:08:06.339Z,7.40
2022-12-18T17:10:38.095Z,7.90
2022-12-18T17:13:07.617Z,7.07
2022-12-18T17:15:37.918Z,7.30
2022-12-18T17:18:07.740Z,8.23
2022-12-18T17:20:39.794Z,7.10
2022-12-18T17:23:09.761Z,7.50
2022-12-18T17:25:42.249Z,7.97
2022-12-18T17:28:12.152Z,7.37
2022-12-18T17:30:41.654Z,7.60
2022-12-18T17:33:11.095Z,7.73
2022-12-18T17:35:43.203Z,7.67
2022-12-18T17:38:12.899Z,7.63
2022-12-18T17:40:46.327Z,7.73
2022-12-18T17:43:16.411Z,8.10
2022-12-18T17:45:45.839Z,11.13
2022-12-18T17:48:15.299Z,13.27
2022-12-18T17:50:47.410Z,8.77
2022-12-18T17:53:16.863Z,8.17
2022-12-18T17:55:46.677Z,7.27
2022-12-18T17:58:16.724Z,8.17
2022-12-18T18:00:46.153Z,7.83
2022-12-18T18:03:15.751Z,8.40
2022-12-18T18:05:48.012Z,9.03
2022-12-18T18:08:17.533Z,7.83
2022-12-18T18:10:49.019Z,8.10
2022-12-18T18:13:38.739Z,7.97
2022-12-18T18:16:10.793Z,7.70
2022-12-18T18:18:40.526Z,8.43
2022-12-18T18:21:12.847Z,7.47
2022-12-18T18:23:45.598Z,7.13
2022-12-18T18:26:16.982Z,8.10
2022-12-18T18:28:46.609Z,7.07
2022-12-18T18:31:16.143Z,6.90
2022-12-18T18:33:45.814Z,8.47
2022-12-18T18:36:18.054Z,8.07
2022-12-18T18:38:48.658Z,7.67
2022-12-18T18:41:18.282Z,7.67
2022-12-18T18:43:48.190Z,7.97
2022-12-18T18:46:18.580Z,7.60
2022-12-18T18:48:48.127Z,8.07
2022-12-18T18:51:21.972Z,7.20
2022-12-18T18:53:52.301Z,7.97
2022-12-18T18:57:03.787Z,8.07
2022-12-18T18:59:11.999Z,7.40
2022-12-18T19:01:41.605Z,8.10
2022-12-18T19:04:11.334Z,8.47
2022-12-18T19:06:44.097Z,7.23
2022-12-18T19:09:13.722Z,7.30
2022-12-18T19:11:55.817Z,7.37
2022-12-18T19:14:25.411Z,8.10
2022-12-18T19:16:54.916Z,6.50
2022-12-18T19:19:25.451Z,8.30
2022-12-18T19:21:57.751Z,7.47
2022-12-18T19:24:27.871Z,7.97
2022-12-18T19:26:58.247Z,8.13
2022-12-18T19:29:27.828Z,8.20
2022-12-18T19:31:57.394Z,8.17
2022-12-18T19:34:27.626Z,7.60
2022-12-18T19:37:00.099Z,8.03
2022-12-18T19:39:30.057Z,7.23
2022-12-18T19:41:59.644Z,7.23
2022-12-18T19:44:29.106Z,6.80
2022-12-18T19:46:59.044Z,7.23
2022-12-18T19:49:28.655Z,7.23
2022-12-18T19:52:01.560Z,7.57
2022-12-18T19:54:31.122Z,7.23
2022-12-18T19:57:00.672Z,6.30
2022-12-18T19:59:30.208Z,7.73
2022-12-18T20:01:59.825Z,7.73
2022-12-18T20:04:29.537Z,8.23
2022-12-18T20:07:01.786Z,7.50
2022-12-18T20:09:31.738Z,7.27
2022-12-18T20:12:02.033Z,7.53
2022-12-18T20:14:31.527Z,7.60
2022-12-18T20:17:01.126Z,7.87
2022-12-18T20:19:31.724Z,8.20
2022-12-18T20:22:06.045Z,7.60
2022-12-18T20:24:35.959Z,7.30
2022-12-18T20:27:09.777Z,7.07
2022-12-18T20:29:43.585Z,8.47
2022-12-18T20:32:13.211Z,7.80
2022-12-18T20:34:42.691Z,7.53
2022-12-18T20:37:15.146Z,8.17
2022-12-18T20:39:45.373Z,8.00
2022-12-18T20:42:14.848Z,7.87
2022-12-18T20:44:45.771Z,8.13
2022-12-18T20:47:15.339Z,6.33
2022-12-18T20:49:45.608Z,7.70
2022-12-18T20:52:18.016Z,8.40
2022-12-18T20:54:49.153Z,7.70
2022-12-18T20:57:19.280Z,7.40
2022-12-18T20:59:48.942Z,8.27
2022-12-18T21:02:18.831Z,7.50
2022-12-18T21:04:48.695Z,7.53
2022-12-18T21:07:20.812Z,7.33
2022-12-18T21:09:50.449Z,7.53
2022-12-18T21:12:34.969Z,8.20
2022-12-18T21:15:11.431Z,7.43
2022-12-18T21:17:44.622Z,8.57
2022-12-18T21:20:18.086Z,7.43
2022-12-18T21:22:51.167Z,7.97
2022-12-18T21:25:23.870Z,7.90
2022-12-18T21:27:53.380Z,7.60
2022-12-18T21:30:23.055Z,7.30
2022-12-18T21:32:52.604Z,8.63
2022-12-18T21:35:22.473Z,8.00
2022-12-18T21:37:56.731Z,8.57
2022-12-18T21:40:26.709Z,7.10
2022-12-18T21:43:08.682Z,7.80
2022-12-18T21:45:38.265Z,7.20
2022-12-18T21:48:08.178Z,7.63
2022-12-18T21:50:37.743Z,7.97
2022-12-18T21:53:09.844Z,8.50
2022-12-18T21:55:39.418Z,8.47
2022-12-18T21:58:08.908Z,8.80
2022-12-18T22:00:38.441Z,7.97
2022-12-18T22:03:18.295Z,7.87
2022-12-18T22:05:51.411Z,7.93
2022-12-18T22:08:42.076Z,8.77
2022-12-18T22:11:17.350Z,8.20
2022-12-18T22:13:48.408Z,8.80
2022-12-18T22:16:17.954Z,8.67
2022-12-18T22:18:47.493Z,8.63
2022-12-18T22:21:28.693Z,8.57
2022-12-18T22:24:02.261Z,9.03
2022-12-18T22:26:37.925Z,8.67
2022-12-18T22:29:21.724Z,9.17
2022-12-18T22:31:51.286Z,9.10
2022-12-18T22:34:23.151Z,8.00
2022-12-18T22:36:53.574Z,9.83
2022-12-18T22:39:26.457Z,9.10
2022-12-18T22:41:58.319Z,9.27
2022-12-18T22:44:27.925Z,8.80
2022-12-18T22:47:05.560Z,9.00
2022-12-18T22:49:36.379Z,9.27
2022-12-18T22:52:06.165Z,9.57
2022-12-18T22:54:38.578Z,10.30
2022-12-18T22:57:08.228Z,9.83
2022-12-18T22:59:37.730Z,9.17
2022-12-18T23:02:07.297Z,9.37
2022-12-18T23:04:36.973Z,9.50
2022-12-18T23:07:06.550Z,9.70
2022-12-18T23:09:39.094Z,10.43
2022-12-18T23:12:09.500Z,9.23
2022-12-18T23:14:39.362Z,10.37
2022-12-18T23:17:08.834Z,9.60
2022-12-18T23:19:38.282Z,9.23
2022-12-18T23:22:11.685Z,8.73
2022-12-18T23:24:44.224Z,9.87
2022-12-18T23:27:13.777Z,8.83
2022-12-18T23:29:43.396Z,10.17
2022-12-18T23:32:14.849Z,9.73
2022-12-18T23:34:44.268Z,10.73
2022-12-18T23:37:24.986Z,9.70
2022-12-18T23:40:06.009Z,10.10
2022-12-18T23:42:35.747Z,10.10
2022-12-18T23:45:11.189Z,10.73
2022-12-18T23:47:50.831Z,10.63
2022-12-18T23:50:28.840Z,9.60
2022-12-18T23:53:00.701Z,10.90
2022-12-18T23:55:40.397Z,10.00
2022-12-18T23:58:10.880Z,9.33
